sensor_id;sensor_type;location;lat;lon;timestamp;temperature;humidity
54540;SHT30;40438;52.992;18.604;2023-03-01T00:00:48;18.87;54.69
54540;SHT30;40438;52.992;18.604;2023-03-01T00:03:14;18.84;54.63
54540;SHT30;40438;52.992;18.604;2023-03-01T00:05:44;19.05;55.01
54540;SHT30;40438;52.992;18.604;2023-03-01T00:08:09;19.39;54.32
54540;SHT30;40438;52.992;18.604;2023-03-01T00:10:35;19.54;53.73
54540;SHT30;40438;52.992;18.604;2023-03-01T00:13:01;19.60;53.71
54540;SHT30;40438;52.992;18.604;2023-03-01T00:15:27;19.59;53.61
54540;SHT30;40438;52.992;18.604;2023-03-01T00:17:54;19.43;53.34
54540;SHT30;40438;52.992;18.604;2023-03-01T00:20:19;19.33;53.30
54540;SHT30;40438;52.992;18.604;2023-03-01T00:22:45;19.22;53.13
54540;SHT30;40438;52.992;18.604;2023-03-01T00:25:11;19.18;52.95
54540;SHT30;40438;52.992;18.604;2023-03-01T00:27:37;19.09;52.96
54540;SHT30;40438;52.992;18.604;2023-03-01T00:30:03;18.99;53.31
54540;SHT30;40438;52.992;18.604;2023-03-01T00:32:29;18.98;53.36
54540;SHT30;40438;52.992;18.604;2023-03-01T00:34:56;18.92;53.14
54540;SHT30;40438;52.992;18.604;2023-03-01T00:37:22;18.83;52.67
54540;SHT30;40438;52.992;18.604;2023-03-01T00:39:49;18.83;52.96
54540;SHT30;40438;52.992;18.604;2023-03-01T00:42:14;18.88;53.01
54540;SHT30;40438;52.992;18.604;2023-03-01T00:44:40;19.05;53.24
54540;SHT30;40438;52.992;18.604;2023-03-01T00:47:06;18.94;53.82
54540;SHT30;40438;52.992;18.604;2023-03-01T00:49:32;18.95;53.78
54540;SHT30;40438;52.992;18.604;2023-03-01T00:51:59;18.95;54.04
54540;SHT30;40438;52.992;18.604;2023-03-01T00:54:25;18.94;54.08
54540;SHT30;40438;52.992;18.604;2023-03-01T00:56:50;18.89;54.08
54540;SHT30;40438;52.992;18.604;2023-03-01T00:59:16;18.98;54.01
54540;SHT30;40438;52.992;18.604;2023-03-01T01:01:42;18.84;54.62
54540;SHT30;40438;52.992;18.604;2023-03-01T01:04:11;18.75;54.89
54540;SHT30;40438;52.992;18.604;2023-03-01T01:06:39;18.74;55.03
54540;SHT30;40438;52.992;18.604;2023-03-01T01:09:07;18.71;55.01
54540;SHT30;40438;52.992;18.604;2023-03-01T01:11:34;18.68;54.90
54540;SHT30;40438;52.992;18.604;2023-03-01T01:14:00;18.65;55.08
54540;SHT30;40438;52.992;18.604;2023-03-01T01:16:27;18.57;55.57
54540;SHT30;40438;52.992;18.604;2023-03-01T01:18:53;18.49;55.78
54540;SHT30;40438;52.992;18.604;2023-03-01T01:21:21;18.46;56.07
54540;SHT30;40438;52.992;18.604;2023-03-01T01:23:47;18.42;56.14
54540;SHT30;40438;52.992;18.604;2023-03-01T01:26:16;18.39;56.26
54540;SHT30;40438;52.992;18.604;2023-03-01T01:28:42;18.36;56.11
54540;SHT30;40438;52.992;18.604;2023-03-01T01:31:08;18.32;56.43
54540;SHT30;40438;52.992;18.604;2023-03-01T01:33:34;18.34;56.48
54540;SHT30;40438;52.992;18.604;2023-03-01T01:36:00;18.30;56.62
54540;SHT30;40438;52.992;18.604;2023-03-01T01:38:26;18.26;56.59
54540;SHT30;40438;52.992;18.604;2023-03-01T01:40:51;18.20;56.78
54540;SHT30;40438;52.992;18.604;2023-03-01T01:43:21;18.25;56.64
54540;SHT30;40438;52.992;18.604;2023-03-01T01:45:48;18.25;56.82
54540;SHT30;40438;52.992;18.604;2023-03-01T01:48:17;18.19;56.89
54540;SHT30;40438;52.992;18.604;2023-03-01T01:50:44;18.19;56.88
54540;SHT30;40438;52.992;18.604;2023-03-01T01:53:12;18.16;56.97
54540;SHT30;40438;52.992;18.604;2023-03-01T01:55:42;18.10;56.89
54540;SHT30;40438;52.992;18.604;2023-03-01T01:58:11;18.12;56.85
54540;SHT30;40438;52.992;18.604;2023-03-01T02:00:39;18.09;57.05
54540;SHT30;40438;52.992;18.604;2023-03-01T02:03:09;18.05;57.14
54540;SHT30;40438;52.992;18.604;2023-03-01T02:05:40;18.06;57.13
54540;SHT30;40438;52.992;18.604;2023-03-01T02:08:08;18.06;56.89
54540;SHT30;40438;52.992;18.604;2023-03-01T02:10:37;17.99;57.12
54540;SHT30;40438;52.992;18.604;2023-03-01T02:13:03;17.98;57.09
54540;SHT30;40438;52.992;18.604;2023-03-01T02:15:32;17.99;57.23
54540;SHT30;40438;52.992;18.604;2023-03-01T02:18:00;17.98;57.11
54540;SHT30;40438;52.992;18.604;2023-03-01T02:20:31;17.95;57.12
54540;SHT30;40438;52.992;18.604;2023-03-01T02:22:58;17.95;57.15
54540;SHT30;40438;52.992;18.604;2023-03-01T02:25:34;17.92;56.93
54540;SHT30;40438;52.992;18.604;2023-03-01T02:28:06;17.95;57.00
54540;SHT30;40438;52.992;18.604;2023-03-01T02:30:35;17.91;56.94
54540;SHT30;40438;52.992;18.604;2023-03-01T02:33:03;17.88;56.95
54540;SHT30;40438;52.992;18.604;2023-03-01T02:35:32;17.96;56.57
54540;SHT30;40438;52.992;18.604;2023-03-01T02:38:00;18.23;54.52
54540;SHT30;40438;52.992;18.604;2023-03-01T02:40:27;18.25;54.11
54540;SHT30;40438;52.992;18.604;2023-03-01T02:42:56;18.37;54.48
54540;SHT30;40438;52.992;18.604;2023-03-01T02:45:23;18.44;54.21
54540;SHT30;40438;52.992;18.604;2023-03-01T02:47:53;18.46;54.42
54540;SHT30;40438;52.992;18.604;2023-03-01T02:50:34;18.43;53.96
54540;SHT30;40438;52.992;18.604;2023-03-01T02:53:08;18.80;53.66
54540;SHT30;40438;52.992;18.604;2023-03-01T02:55:36;19.05;53.02
54540;SHT30;40438;52.992;18.604;2023-03-01T02:58:03;19.15;52.94
54540;SHT30;40438;52.992;18.604;2023-03-01T03:00:34;19.22;52.65
54540;SHT30;40438;52.992;18.604;2023-03-01T03:03:02;19.14;52.32
54540;SHT30;40438;52.992;18.604;2023-03-01T03:05:30;19.02;52.70
54540;SHT30;40438;52.992;18.604;2023-03-01T03:07:58;19.26;52.16
54540;SHT30;40438;52.992;18.604;2023-03-01T03:10:26;19.33;52.04
54540;SHT30;40438;52.992;18.604;2023-03-01T03:12:54;19.36;51.94
54540;SHT30;40438;52.992;18.604;2023-03-01T03:15:21;19.32;51.93
54540;SHT30;40438;52.992;18.604;2023-03-01T03:17:48;19.29;51.89
54540;SHT30;40438;52.992;18.604;2023-03-01T03:20:17;19.19;51.74
54540;SHT30;40438;52.992;18.604;2023-03-01T03:22:43;19.01;51.59
54540;SHT30;40438;52.992;18.604;2023-03-01T03:25:08;18.87;51.48
54540;SHT30;40438;52.992;18.604;2023-03-01T03:27:34;18.74;51.72
54540;SHT30;40438;52.992;18.604;2023-03-01T03:30:00;18.71;51.65
54540;SHT30;40438;52.992;18.604;2023-03-01T03:32:26;18.64;51.75
54540;SHT30;40438;52.992;18.604;2023-03-01T03:34:51;18.61;52.00
54540;SHT30;40438;52.992;18.604;2023-03-01T03:37:19;18.54;51.76
54540;SHT30;40438;52.992;18.604;2023-03-01T03:39:44;18.50;51.73
54540;SHT30;40438;52.992;18.604;2023-03-01T03:42:10;18.50;51.74
54540;SHT30;40438;52.992;18.604;2023-03-01T03:44:36;18.56;51.97
54540;SHT30;40438;52.992;18.604;2023-03-01T03:47:02;18.63;52.20
54540;SHT30;40438;52.992;18.604;2023-03-01T03:49:27;18.67;52.38
54540;SHT30;40438;52.992;18.604;2023-03-01T03:51:53;18.60;52.75
54540;SHT30;40438;52.992;18.604;2023-03-01T03:54:20;18.60;53.06
54540;SHT30;40438;52.992;18.604;2023-03-01T03:56:46;18.57;53.02
54540;SHT30;40438;52.992;18.604;2023-03-01T03:59:12;18.54;53.22
54540;SHT30;40438;52.992;18.604;2023-03-01T04:01:37;18.47;53.26
54540;SHT30;40438;52.992;18.604;2023-03-01T04:04:03;18.64;53.06
54540;SHT30;40438;52.992;18.604;2023-03-01T04:06:30;19.14;52.96
54540;SHT30;40438;52.992;18.604;2023-03-01T04:08:56;19.66;51.68
54540;SHT30;40438;52.992;18.604;2023-03-01T04:11:23;20.00;51.24
54540;SHT30;40438;52.992;18.604;2023-03-01T04:13:49;20.26;50.88
54540;SHT30;40438;52.992;18.604;2023-03-01T04:16:15;20.42;50.60
54540;SHT30;40438;52.992;18.604;2023-03-01T04:18:40;20.52;50.17
54540;SHT30;40438;52.992;18.604;2023-03-01T04:21:06;20.56;49.94
54540;SHT30;40438;52.992;18.604;2023-03-01T04:23:32;20.60;49.81
54540;SHT30;40438;52.992;18.604;2023-03-01T04:25:58;20.66;49.83
54540;SHT30;40438;52.992;18.604;2023-03-01T04:28:28;20.70;49.81
54540;SHT30;40438;52.992;18.604;2023-03-01T04:30:55;20.73;49.60
54540;SHT30;40438;52.992;18.604;2023-03-01T04:33:22;20.75;49.54
54540;SHT30;40438;52.992;18.604;2023-03-01T04:35:48;20.75;49.51
54540;SHT30;40438;52.992;18.604;2023-03-01T04:38:14;20.73;49.54
54540;SHT30;40438;52.992;18.604;2023-03-01T04:40:39;20.77;49.67
54540;SHT30;40438;52.992;18.604;2023-03-01T04:43:05;20.80;49.68
54540;SHT30;40438;52.992;18.604;2023-03-01T04:45:33;20.79;49.65
54540;SHT30;40438;52.992;18.604;2023-03-01T04:47:59;20.80;49.61
54540;SHT30;40438;52.992;18.604;2023-03-01T04:50:25;20.82;49.72
54540;SHT30;40438;52.992;18.604;2023-03-01T04:52:50;20.83;49.59
54540;SHT30;40438;52.992;18.604;2023-03-01T04:55:16;20.84;49.59
54540;SHT30;40438;52.992;18.604;2023-03-01T04:57:42;20.83;49.64
54540;SHT30;40438;52.992;18.604;2023-03-01T05:00:10;20.86;49.65
54540;SHT30;40438;52.992;18.604;2023-03-01T05:02:38;20.89;49.53
54540;SHT30;40438;52.992;18.604;2023-03-01T05:05:04;20.87;49.50
54540;SHT30;40438;52.992;18.604;2023-03-01T05:07:30;20.89;49.42
54540;SHT30;40438;52.992;18.604;2023-03-01T05:09:55;20.89;49.62
54540;SHT30;40438;52.992;18.604;2023-03-01T05:12:21;20.87;49.52
54540;SHT30;40438;52.992;18.604;2023-03-01T05:14:47;20.91;49.60
54540;SHT30;40438;52.992;18.604;2023-03-01T05:17:13;20.89;49.61
54540;SHT30;40438;52.992;18.604;2023-03-01T05:19:40;20.90;49.67
54540;SHT30;40438;52.992;18.604;2023-03-01T05:22:05;20.93;49.63
54540;SHT30;40438;52.992;18.604;2023-03-01T05:24:33;20.94;49.61
54540;SHT30;40438;52.992;18.604;2023-03-01T05:27:00;20.96;49.58
54540;SHT30;40438;52.992;18.604;2023-03-01T05:29:28;21.03;49.27
54540;SHT30;40438;52.992;18.604;2023-03-01T05:31:55;21.04;49.17
54540;SHT30;40438;52.992;18.604;2023-03-01T05:34:23;21.08;49.09
54540;SHT30;40438;52.992;18.604;2023-03-01T05:36:50;21.17;48.87
54540;SHT30;40438;52.992;18.604;2023-03-01T05:39:16;21.13;49.00
54540;SHT30;40438;52.992;18.604;2023-03-01T05:41:42;21.11;49.11
54540;SHT30;40438;52.992;18.604;2023-03-01T05:44:07;21.49;48.15
54540;SHT30;40438;52.992;18.604;2023-03-01T05:46:33;21.69;47.57
54540;SHT30;40438;52.992;18.604;2023-03-01T05:48:59;21.76;47.48
54540;SHT30;40438;52.992;18.604;2023-03-01T05:51:25;21.82;47.62
54540;SHT30;40438;52.992;18.604;2023-03-01T05:53:52;21.88;47.47
54540;SHT30;40438;52.992;18.604;2023-03-01T05:56:18;21.88;47.68
54540;SHT30;40438;52.992;18.604;2023-03-01T05:58:43;21.79;47.81
54540;SHT30;40438;52.992;18.604;2023-03-01T06:01:11;21.80;47.85
54540;SHT30;40438;52.992;18.604;2023-03-01T06:03:37;21.76;47.96
54540;SHT30;40438;52.992;18.604;2023-03-01T06:06:03;21.79;47.93
54540;SHT30;40438;52.992;18.604;2023-03-01T06:08:29;21.79;47.97
54540;SHT30;40438;52.992;18.604;2023-03-01T06:10:56;21.78;48.04
54540;SHT30;40438;52.992;18.604;2023-03-01T06:13:22;21.79;47.93
54540;SHT30;40438;52.992;18.604;2023-03-01T06:15:48;21.72;48.04
54540;SHT30;40438;52.992;18.604;2023-03-01T06:18:13;21.71;48.10
54540;SHT30;40438;52.992;18.604;2023-03-01T06:20:39;21.71;48.15
54540;SHT30;40438;52.992;18.604;2023-03-01T06:23:05;21.78;47.91
54540;SHT30;40438;52.992;18.604;2023-03-01T06:25:32;21.80;47.93
54540;SHT30;40438;52.992;18.604;2023-03-01T06:27:59;21.80;47.94
54540;SHT30;40438;52.992;18.604;2023-03-01T06:30:26;21.76;47.89
54540;SHT30;40438;52.992;18.604;2023-03-01T06:32:52;21.73;48.07
54540;SHT30;40438;52.992;18.604;2023-03-01T06:35:18;21.73;48.01
54540;SHT30;40438;52.992;18.604;2023-03-01T06:37:45;21.83;47.83
54540;SHT30;40438;52.992;18.604;2023-03-01T06:40:11;21.82;47.93
54540;SHT30;40438;52.992;18.604;2023-03-01T06:42:39;21.83;47.92
54540;SHT30;40438;52.992;18.604;2023-03-01T06:45:08;21.78;48.00
54540;SHT30;40438;52.992;18.604;2023-03-01T06:47:34;21.83;47.84
54540;SHT30;40438;52.992;18.604;2023-03-01T06:50:00;21.85;47.82
54540;SHT30;40438;52.992;18.604;2023-03-01T06:52:26;21.88;47.79
54540;SHT30;40438;52.992;18.604;2023-03-01T06:54:52;21.90;47.61
54540;SHT30;40438;52.992;18.604;2023-03-01T06:57:18;21.92;47.62
54540;SHT30;40438;52.992;18.604;2023-03-01T06:59:43;21.90;47.63
54540;SHT30;40438;52.992;18.604;2023-03-01T07:02:11;21.85;47.66
54540;SHT30;40438;52.992;18.604;2023-03-01T07:04:37;21.82;47.61
54540;SHT30;40438;52.992;18.604;2023-03-01T07:07:03;21.83;47.60
54540;SHT30;40438;52.992;18.604;2023-03-01T07:09:29;21.89;47.49
54540;SHT30;40438;52.992;18.604;2023-03-01T07:11:56;21.92;47.44
54540;SHT30;40438;52.992;18.604;2023-03-01T07:14:22;21.92;47.49
54540;SHT30;40438;52.992;18.604;2023-03-01T07:16:48;21.88;47.47
54540;SHT30;40438;52.992;18.604;2023-03-01T07:19:15;21.85;47.48
54540;SHT30;40438;52.992;18.604;2023-03-01T07:21:41;21.85;47.49
54540;SHT30;40438;52.992;18.604;2023-03-01T07:24:09;21.83;47.45
54540;SHT30;40438;52.992;18.604;2023-03-01T07:26:35;21.78;47.50
54540;SHT30;40438;52.992;18.604;2023-03-01T07:29:01;21.86;47.43
54540;SHT30;40438;52.992;18.604;2023-03-01T07:31:27;21.89;47.44
54540;SHT30;40438;52.992;18.604;2023-03-01T07:33:53;21.86;47.47
54540;SHT30;40438;52.992;18.604;2023-03-01T07:36:20;21.88;47.49
54540;SHT30;40438;52.992;18.604;2023-03-01T07:38:46;21.85;47.50
54540;SHT30;40438;52.992;18.604;2023-03-01T07:41:12;21.85;47.45
54540;SHT30;40438;52.992;18.604;2023-03-01T07:43:38;21.90;47.39
54540;SHT30;40438;52.992;18.604;2023-03-01T07:46:04;21.92;47.25
54540;SHT30;40438;52.992;18.604;2023-03-01T07:48:31;21.90;47.27
54540;SHT30;40438;52.992;18.604;2023-03-01T07:50:58;21.88;47.38
54540;SHT30;40438;52.992;18.604;2023-03-01T07:53:25;21.85;47.39
54540;SHT30;40438;52.992;18.604;2023-03-01T07:56:00;21.83;47.36
54540;SHT30;40438;52.992;18.604;2023-03-01T07:58:26;21.86;47.44
54540;SHT30;40438;52.992;18.604;2023-03-01T08:00:51;21.92;47.21
54540;SHT30;40438;52.992;18.604;2023-03-01T08:03:17;21.92;47.32
54540;SHT30;40438;52.992;18.604;2023-03-01T08:05:43;21.90;47.25
54540;SHT30;40438;52.992;18.604;2023-03-01T08:08:09;21.90;47.34
54540;SHT30;40438;52.992;18.604;2023-03-01T08:10:36;21.86;47.25
54540;SHT30;40438;52.992;18.604;2023-03-01T08:13:02;21.92;47.22
54540;SHT30;40438;52.992;18.604;2023-03-01T08:15:28;21.99;46.99
54540;SHT30;40438;52.992;18.604;2023-03-01T08:17:54;22.02;46.94
54540;SHT30;40438;52.992;18.604;2023-03-01T08:20:19;22.03;46.96
54540;SHT30;40438;52.992;18.604;2023-03-01T08:22:45;22.02;47.14
54540;SHT30;40438;52.992;18.604;2023-03-01T08:25:11;22.05;47.11
54540;SHT30;40438;52.992;18.604;2023-03-01T08:27:38;22.02;47.15
54540;SHT30;40438;52.992;18.604;2023-03-01T08:30:05;22.03;47.20
54540;SHT30;40438;52.992;18.604;2023-03-01T08:32:35;22.00;47.47
54540;SHT30;40438;52.992;18.604;2023-03-01T08:35:01;22.02;47.09
54540;SHT30;40438;52.992;18.604;2023-03-01T08:37:27;22.13;47.19
54540;SHT30;40438;52.992;18.604;2023-03-01T08:39:53;22.24;47.38
54540;SHT30;40438;52.992;18.604;2023-03-01T08:42:18;22.30;47.67
54540;SHT30;40438;52.992;18.604;2023-03-01T08:44:45;22.29;47.70
54540;SHT30;40438;52.992;18.604;2023-03-01T08:47:11;22.24;47.56
54540;SHT30;40438;52.992;18.604;2023-03-01T08:49:37;22.19;47.48
54540;SHT30;40438;52.992;18.604;2023-03-01T08:52:03;22.16;47.59
54540;SHT30;40438;52.992;18.604;2023-03-01T08:54:29;22.19;47.78
54540;SHT30;40438;52.992;18.604;2023-03-01T08:56:54;22.26;47.58
54540;SHT30;40438;52.992;18.604;2023-03-01T08:59:20;22.19;47.51
54540;SHT30;40438;52.992;18.604;2023-03-01T09:01:47;22.19;47.64
54540;SHT30;40438;52.992;18.604;2023-03-01T09:04:14;22.20;47.61
54540;SHT30;40438;52.992;18.604;2023-03-01T09:06:40;22.23;47.50
54540;SHT30;40438;52.992;18.604;2023-03-01T09:09:06;22.21;47.55
54540;SHT30;40438;52.992;18.604;2023-03-01T09:11:36;22.19;47.68
54540;SHT30;40438;52.992;18.604;2023-03-01T09:14:05;22.19;47.61
54540;SHT30;40438;52.992;18.604;2023-03-01T09:16:31;22.16;47.67
54540;SHT30;40438;52.992;18.604;2023-03-01T09:18:58;22.20;47.78
54540;SHT30;40438;52.992;18.604;2023-03-01T09:21:23;22.19;47.78
54540;SHT30;40438;52.992;18.604;2023-03-01T09:23:49;22.16;47.81
54540;SHT30;40438;52.992;18.604;2023-03-01T09:26:17;22.09;47.83
54540;SHT30;40438;52.992;18.604;2023-03-01T09:28:43;22.13;47.90
54540;SHT30;40438;52.992;18.604;2023-03-01T09:31:09;22.10;47.86
54540;SHT30;40438;52.992;18.604;2023-03-01T09:33:34;22.12;47.78
54540;SHT30;40438;52.992;18.604;2023-03-01T09:36:03;22.13;47.70
54540;SHT30;40438;52.992;18.604;2023-03-01T09:38:30;22.12;47.72
54540;SHT30;40438;52.992;18.604;2023-03-01T09:40:55;22.09;47.71
54540;SHT30;40438;52.992;18.604;2023-03-01T09:43:26;22.10;47.62
54540;SHT30;40438;52.992;18.604;2023-03-01T09:45:55;22.09;47.56
54540;SHT30;40438;52.992;18.604;2023-03-01T09:48:24;22.06;47.51
54540;SHT30;40438;52.992;18.604;2023-03-01T09:50:51;22.08;47.42
54540;SHT30;40438;52.992;18.604;2023-03-01T09:53:20;22.10;47.46
54540;SHT30;40438;52.992;18.604;2023-03-01T09:55:52;22.14;47.35
54540;SHT30;40438;52.992;18.604;2023-03-01T09:58:37;22.20;47.17
54540;SHT30;40438;52.992;18.604;2023-03-01T10:01:15;22.24;47.08
54540;SHT30;40438;52.992;18.604;2023-03-01T10:04:00;22.30;47.13
54540;SHT30;40438;52.992;18.604;2023-03-01T10:06:28;22.38;47.07
54540;SHT30;40438;52.992;18.604;2023-03-01T10:08:58;22.31;47.16
54540;SHT30;40438;52.992;18.604;2023-03-01T10:11:26;22.37;47.16
54540;SHT30;40438;52.992;18.604;2023-03-01T10:14:02;22.38;47.13
54540;SHT30;40438;52.992;18.604;2023-03-01T10:16:38;22.43;47.00
54540;SHT30;40438;52.992;18.604;2023-03-01T10:19:08;22.43;47.01
54540;SHT30;40438;52.992;18.604;2023-03-01T10:21:43;22.60;46.65
54540;SHT30;40438;52.992;18.604;2023-03-01T10:24:13;22.63;46.60
54540;SHT30;40438;52.992;18.604;2023-03-01T10:26:47;22.61;46.57
54540;SHT30;40438;52.992;18.604;2023-03-01T10:29:14;22.64;46.56
54540;SHT30;40438;52.992;18.604;2023-03-01T10:31:42;22.57;46.62
54540;SHT30;40438;52.992;18.604;2023-03-01T10:34:14;22.77;46.53
54540;SHT30;40438;52.992;18.604;2023-03-01T10:36:41;22.87;46.53
54540;SHT30;40438;52.992;18.604;2023-03-01T10:39:15;23.00;46.73
54540;SHT30;40438;52.992;18.604;2023-03-01T10:41:58;23.05;46.65
54540;SHT30;40438;52.992;18.604;2023-03-01T10:44:43;23.12;46.55
54540;SHT30;40438;52.992;18.604;2023-03-01T10:47:17;23.14;46.42
54540;SHT30;40438;52.992;18.604;2023-03-01T10:50:09;23.19;46.52
54540;SHT30;40438;52.992;18.604;2023-03-01T10:52:56;23.18;46.35
54540;SHT30;40438;52.992;18.604;2023-03-01T10:55:28;23.19;46.33
54540;SHT30;40438;52.992;18.604;2023-03-01T10:58:07;23.19;46.79
54540;SHT30;40438;52.992;18.604;2023-03-01T11:00:33;23.23;46.63
54540;SHT30;40438;52.992;18.604;2023-03-01T11:03:12;21.65;40.68
54540;SHT30;40438;52.992;18.604;2023-03-01T11:05:54;22.12;45.43
54540;SHT30;40438;52.992;18.604;2023-03-01T11:08:38;22.33;45.31
54540;SHT30;40438;52.992;18.604;2023-03-01T11:11:15;22.53;45.68
54540;SHT30;40438;52.992;18.604;2023-03-01T11:13:50;22.72;45.40
54540;SHT30;40438;52.992;18.604;2023-03-01T11:16:22;22.79;45.43
54540;SHT30;40438;52.992;18.604;2023-03-01T11:18:56;22.84;45.42
54540;SHT30;40438;52.992;18.604;2023-03-01T11:21:24;22.89;45.34
54540;SHT30;40438;52.992;18.604;2023-03-01T11:23:51;22.95;45.36
54540;SHT30;40438;52.992;18.604;2023-03-01T11:26:19;22.96;45.34
54540;SHT30;40438;52.992;18.604;2023-03-01T11:28:51;23.03;45.36
54540;SHT30;40438;52.992;18.604;2023-03-01T11:31:19;23.12;45.21
54540;SHT30;40438;52.992;18.604;2023-03-01T11:33:48;23.14;45.32
54540;SHT30;40438;52.992;18.604;2023-03-01T11:36:22;23.20;45.41
54540;SHT30;40438;52.992;18.604;2023-03-01T11:38:50;23.27;45.37
54540;SHT30;40438;52.992;18.604;2023-03-01T11:41:19;21.57;36.45
54540;SHT30;40438;52.992;18.604;2023-03-01T11:43:50;21.15;32.68
54540;SHT30;40438;52.992;18.604;2023-03-01T11:46:41;20.12;33.05
54540;SHT30;40438;52.992;18.604;2023-03-01T11:49:30;19.64;34.14
54540;SHT30;40438;52.992;18.604;2023-03-01T11:52:05;19.70;34.83
54540;SHT30;40438;52.992;18.604;2023-03-01T11:54:46;20.45;37.94
54540;SHT30;40438;52.992;18.604;2023-03-01T11:57:22;21.35;38.76
54540;SHT30;40438;52.992;18.604;2023-03-01T12:00:04;21.90;37.95
54540;SHT30;40438;52.992;18.604;2023-03-01T12:05:54;22.54;37.00
54540;SHT30;40438;52.992;18.604;2023-03-01T12:08:26;22.82;37.44
54540;SHT30;40438;52.992;18.604;2023-03-01T12:11:03;24.14;35.39
54540;SHT30;40438;52.992;18.604;2023-03-01T12:14:02;24.64;34.64
54540;SHT30;40438;52.992;18.604;2023-03-01T12:16:50;24.67;34.23
54540;SHT30;40438;52.992;18.604;2023-03-01T12:19:42;24.56;34.40
54540;SHT30;40438;52.992;18.604;2023-03-01T12:22:24;24.62;34.60
54540;SHT30;40438;52.992;18.604;2023-03-01T12:25:14;24.52;35.29
54540;SHT30;40438;52.992;18.604;2023-03-01T12:30:51;24.28;36.38
54540;SHT30;40438;52.992;18.604;2023-03-01T12:33:28;24.39;36.20
54540;SHT30;40438;52.992;18.604;2023-03-01T12:36:26;24.38;36.54
54540;SHT30;40438;52.992;18.604;2023-03-01T12:39:04;24.29;36.90
54540;SHT30;40438;52.992;18.604;2023-03-01T12:41:43;24.19;37.17
54540;SHT30;40438;52.992;18.604;2023-03-01T12:44:21;24.16;37.41
54540;SHT30;40438;52.992;18.604;2023-03-01T12:47:05;24.14;37.68
54540;SHT30;40438;52.992;18.604;2023-03-01T12:49:35;24.49;37.11
54540;SHT30;40438;52.992;18.604;2023-03-01T12:52:10;24.60;37.06
54540;SHT30;40438;52.992;18.604;2023-03-01T12:54:37;24.53;37.32
54540;SHT30;40438;52.992;18.604;2023-03-01T12:57:10;24.46;37.45
54540;SHT30;40438;52.992;18.604;2023-03-01T12:59:41;24.32;37.79
54540;SHT30;40438;52.992;18.604;2023-03-01T13:02:19;24.21;38.16
54540;SHT30;40438;52.992;18.604;2023-03-01T13:04:56;24.21;38.42
54540;SHT30;40438;52.992;18.604;2023-03-01T13:07:30;24.28;39.28
54540;SHT30;40438;52.992;18.604;2023-03-01T13:10:09;24.14;38.96
54540;SHT30;40438;52.992;18.604;2023-03-01T13:12:45;24.00;39.48
54540;SHT30;40438;52.992;18.604;2023-03-01T13:15:26;23.93;40.03
54540;SHT30;40438;52.992;18.604;2023-03-01T13:17:55;23.90;40.10
54540;SHT30;40438;52.992;18.604;2023-03-01T13:20:24;24.02;40.18
54540;SHT30;40438;52.992;18.604;2023-03-01T13:23:01;23.94;40.51
54540;SHT30;40438;52.992;18.604;2023-03-01T13:25:27;23.77;41.03
54540;SHT30;40438;52.992;18.604;2023-03-01T13:30:59;23.67;41.67
54540;SHT30;40438;52.992;18.604;2023-03-01T13:33:40;23.57;42.14
54540;SHT30;40438;52.992;18.604;2023-03-01T13:36:07;23.53;42.46
54540;SHT30;40438;52.992;18.604;2023-03-01T13:38:44;23.46;42.95
54540;SHT30;40438;52.992;18.604;2023-03-01T13:41:11;23.43;43.06
54540;SHT30;40438;52.992;18.604;2023-03-01T13:43:38;23.46;43.14
54540;SHT30;40438;52.992;18.604;2023-03-01T13:46:15;23.43;43.75
54540;SHT30;40438;52.992;18.604;2023-03-01T13:48:43;23.39;43.96
54540;SHT30;40438;52.992;18.604;2023-03-01T13:51:11;23.36;44.31
54540;SHT30;40438;52.992;18.604;2023-03-01T13:53:40;23.35;44.28
54540;SHT30;40438;52.992;18.604;2023-03-01T13:56:09;23.42;44.38
54540;SHT30;40438;52.992;18.604;2023-03-01T13:58:49;23.40;44.56
54540;SHT30;40438;52.992;18.604;2023-03-01T14:01:24;23.36;44.51
54540;SHT30;40438;52.992;18.604;2023-03-01T14:03:51;23.35;44.76
54540;SHT30;40438;52.992;18.604;2023-03-01T14:06:20;23.35;44.85
54540;SHT30;40438;52.992;18.604;2023-03-01T14:08:48;23.37;44.93
54540;SHT30;40438;52.992;18.604;2023-03-01T14:11:37;23.32;45.01
54540;SHT30;40438;52.992;18.604;2023-03-01T14:17:21;23.26;45.38
54540;SHT30;40438;52.992;18.604;2023-03-01T14:19:54;23.12;45.63
54540;SHT30;40438;52.992;18.604;2023-03-01T14:22:21;23.19;45.86
54540;SHT30;40438;52.992;18.604;2023-03-01T14:24:51;23.03;45.83
54540;SHT30;40438;52.992;18.604;2023-03-01T14:27:18;22.96;45.85
54540;SHT30;40438;52.992;18.604;2023-03-01T14:29:45;22.91;45.93
54540;SHT30;40438;52.992;18.604;2023-03-01T14:32:22;22.87;46.02
54540;SHT30;40438;52.992;18.604;2023-03-01T14:34:50;22.84;46.08
54540;SHT30;40438;52.992;18.604;2023-03-01T14:37:20;22.81;46.24
54540;SHT30;40438;52.992;18.604;2023-03-01T14:39:46;22.78;46.29
54540;SHT30;40438;52.992;18.604;2023-03-01T14:42:13;22.77;46.32
54540;SHT30;40438;52.992;18.604;2023-03-01T14:44:41;22.74;46.36
54540;SHT30;40438;52.992;18.604;2023-03-01T14:47:11;22.67;46.39
54540;SHT30;40438;52.992;18.604;2023-03-01T14:49:39;22.64;46.42
54540;SHT30;40438;52.992;18.604;2023-03-01T14:52:07;22.63;46.40
54540;SHT30;40438;52.992;18.604;2023-03-01T14:54:40;22.61;46.52
54540;SHT30;40438;52.992;18.604;2023-03-01T14:57:14;22.58;46.52
54540;SHT30;40438;52.992;18.604;2023-03-01T14:59:41;22.60;46.55
54540;SHT30;40438;52.992;18.604;2023-03-01T15:02:13;22.57;46.44
54540;SHT30;40438;52.992;18.604;2023-03-01T15:04:41;22.53;46.48
54540;SHT30;40438;52.992;18.604;2023-03-01T15:07:11;22.53;46.46
54540;SHT30;40438;52.992;18.604;2023-03-01T15:09:39;22.57;46.47
54540;SHT30;40438;52.992;18.604;2023-03-01T15:12:36;22.58;46.48
54540;SHT30;40438;52.992;18.604;2023-03-01T15:15:20;22.54;46.44
54540;SHT30;40438;52.992;18.604;2023-03-01T15:17:51;22.57;46.38
54540;SHT30;40438;52.992;18.604;2023-03-01T15:20:19;22.58;46.36
54540;SHT30;40438;52.992;18.604;2023-03-01T15:22:45;22.57;46.39
54540;SHT30;40438;52.992;18.604;2023-03-01T15:25:15;22.57;46.34
54540;SHT30;40438;52.992;18.604;2023-03-01T15:27:45;22.57;46.32
54540;SHT30;40438;52.992;18.604;2023-03-01T15:30:17;22.53;46.40
54540;SHT30;40438;52.992;18.604;2023-03-01T15:32:44;22.50;46.46
54540;SHT30;40438;52.992;18.604;2023-03-01T15:35:43;22.48;46.50
54540;SHT30;40438;52.992;18.604;2023-03-01T15:38:30;22.41;46.56
54540;SHT30;40438;52.992;18.604;2023-03-01T15:40:57;22.37;47.12